sensor_id;sensor_type;location;lat;lon;timestamp;P1;durP1;ratioP1;P2;durP2;ratioP2
19495;SDS011;9888;48.606;9.630;2023-09-30T00:00:09;12.67;;;4.93;;
19495;SDS011;9888;48.606;9.630;2023-09-30T00:02:38;14.80;;;5.87;;
19495;SDS011;9888;48.606;9.630;2023-09-30T00:05:06;12.50;;;5.10;;
19495;SDS011;9888;48.606;9.630;2023-09-30T00:07:42;13.90;;;5.20;;
19495;SDS011;9888;48.606;9.630;2023-09-30T00:10:10;12.97;;;4.97;;
19495;SDS011;9888;48.606;9.630;2023-09-30T00:12:42;19.80;;;5.27;;
19495;SDS011;9888;48.606;9.630;2023-09-30T00:15:10;15.40;;;6.10;;
19495;SDS011;9888;48.606;9.630;2023-09-30T00:17:39;13.90;;;5.20;;
19495;SDS011;9888;48.606;9.630;2023-09-30T00:20:06;15.00;;;5.67;;
19495;SDS011;9888;48.606;9.630;2023-09-30T00:22:34;13.80;;;5.20;;
19495;SDS011;9888;48.606;9.630;2023-09-30T00:25:02;12.57;;;4.80;;
19495;SDS011;9888;48.606;9.630;2023-09-30T00:27:31;13.30;;;5.20;;
19495;SDS011;9888;48.606;9.630;2023-09-30T00:30:14;13.80;;;5.30;;
19495;SDS011;9888;48.606;9.630;2023-09-30T00:32:42;14.03;;;4.87;;
19495;SDS011;9888;48.606;9.630;2023-09-30T00:35:13;12.93;;;4.97;;
19495;SDS011;9888;48.606;9.630;2023-09-30T00:37:41;12.13;;;5.03;;
19495;SDS011;9888;48.606;9.630;2023-09-30T00:40:11;11.97;;;4.40;;
19495;SDS011;9888;48.606;9.630;2023-09-30T00:42:40;13.30;;;4.93;;
19495;SDS011;9888;48.606;9.630;2023-09-30T00:45:08;12.73;;;4.00;;
19495;SDS011;9888;48.606;9.630;2023-09-30T00:47:37;13.10;;;4.60;;
19495;SDS011;9888;48.606;9.630;2023-09-30T00:50:06;11.60;;;4.00;;
19495;SDS011;9888;48.606;9.630;2023-09-30T00:52:36;11.27;;;3.90;;
19495;SDS011;9888;48.606;9.630;2023-09-30T00:55:06;12.20;;;4.53;;
19495;SDS011;9888;48.606;9.630;2023-09-30T00:57:37;13.73;;;5.20;;
19495;SDS011;9888;48.606;9.630;2023-09-30T01:00:05;13.60;;;4.80;;
19495;SDS011;9888;48.606;9.630;2023-09-30T01:02:40;13.10;;;4.70;;
19495;SDS011;9888;48.606;9.630;2023-09-30T01:05:09;11.33;;;4.30;;
19495;SDS011;9888;48.606;9.630;2023-09-30T01:07:37;13.30;;;5.03;;
19495;SDS011;9888;48.606;9.630;2023-09-30T01:10:05;10.13;;;3.57;;
19495;SDS011;9888;48.606;9.630;2023-09-30T01:12:36;12.73;;;4.07;;
19495;SDS011;9888;48.606;9.630;2023-09-30T01:15:03;11.30;;;4.17;;
19495;SDS011;9888;48.606;9.630;2023-09-30T01:17:33;10.17;;;4.00;;
19495;SDS011;9888;48.606;9.630;2023-09-30T01:20:01;9.70;;;3.80;;
19495;SDS011;9888;48.606;9.630;2023-09-30T01:22:34;11.60;;;4.10;;
19495;SDS011;9888;48.606;9.630;2023-09-30T01:25:03;11.43;;;3.93;;
19495;SDS011;9888;48.606;9.630;2023-09-30T01:27:32;11.30;;;4.10;;
19495;SDS011;9888;48.606;9.630;2023-09-30T01:30:00;9.50;;;3.87;;
19495;SDS011;9888;48.606;9.630;2023-09-30T01:32:28;11.80;;;4.53;;
19495;SDS011;9888;48.606;9.630;2023-09-30T01:34:56;10.20;;;4.03;;
19495;SDS011;9888;48.606;9.630;2023-09-30T01:37:22;13.43;;;4.67;;
19495;SDS011;9888;48.606;9.630;2023-09-30T01:39:57;11.53;;;4.43;;
19495;SDS011;9888;48.606;9.630;2023-09-30T01:42:26;10.70;;;4.17;;
19495;SDS011;9888;48.606;9.630;2023-09-30T01:44:54;10.87;;;4.60;;
19495;SDS011;9888;48.606;9.630;2023-09-30T01:47:24;9.30;;;3.80;;
19495;SDS011;9888;48.606;9.630;2023-09-30T01:49:52;10.40;;;4.20;;
19495;SDS011;9888;48.606;9.630;2023-09-30T01:52:20;9.80;;;4.07;;
19495;SDS011;9888;48.606;9.630;2023-09-30T01:54:53;9.20;;;3.83;;
19495;SDS011;9888;48.606;9.630;2023-09-30T01:57:23;11.77;;;4.43;;
19495;SDS011;9888;48.606;9.630;2023-09-30T01:59:50;10.23;;;4.70;;
19495;SDS011;9888;48.606;9.630;2023-09-30T02:02:18;9.17;;;4.27;;
19495;SDS011;9888;48.606;9.630;2023-09-30T02:04:46;10.83;;;4.50;;
19495;SDS011;9888;48.606;9.630;2023-09-30T02:07:14;10.63;;;4.00;;
19495;SDS011;9888;48.606;9.630;2023-09-30T02:09:42;9.33;;;3.80;;
19495;SDS011;9888;48.606;9.630;2023-09-30T02:12:11;10.50;;;4.00;;
19495;SDS011;9888;48.606;9.630;2023-09-30T02:14:39;10.40;;;4.00;;
19495;SDS011;9888;48.606;9.630;2023-09-30T02:17:07;9.93;;;4.10;;
19495;SDS011;9888;48.606;9.630;2023-09-30T02:19:35;12.13;;;4.97;;
19495;SDS011;9888;48.606;9.630;2023-09-30T02:22:03;10.27;;;4.37;;
19495;SDS011;9888;48.606;9.630;2023-09-30T02:24:31;13.10;;;4.80;;
19495;SDS011;9888;48.606;9.630;2023-09-30T02:26:59;12.10;;;4.60;;
19495;SDS011;9888;48.606;9.630;2023-09-30T02:29:26;11.33;;;4.50;;
19495;SDS011;9888;48.606;9.630;2023-09-30T02:31:55;11.00;;;4.70;;
19495;SDS011;9888;48.606;9.630;2023-09-30T02:34:23;11.93;;;5.00;;
19495;SDS011;9888;48.606;9.630;2023-09-30T02:36:51;14.80;;;6.17;;
19495;SDS011;9888;48.606;9.630;2023-09-30T02:39:21;10.63;;;4.80;;
19495;SDS011;9888;48.606;9.630;2023-09-30T02:41:51;13.80;;;5.00;;
19495;SDS011;9888;48.606;9.630;2023-09-30T02:44:20;11.23;;;5.40;;
19495;SDS011;9888;48.606;9.630;2023-09-30T02:46:51;12.30;;;4.90;;
19495;SDS011;9888;48.606;9.630;2023-09-30T02:49:21;15.30;;;6.07;;
19495;SDS011;9888;48.606;9.630;2023-09-30T02:51:49;12.00;;;5.33;;
19495;SDS011;9888;48.606;9.630;2023-09-30T02:54:17;12.20;;;5.53;;
19495;SDS011;9888;48.606;9.630;2023-09-30T02:56:45;13.10;;;5.47;;
19495;SDS011;9888;48.606;9.630;2023-09-30T02:59:13;11.10;;;5.67;;
19495;SDS011;9888;48.606;9.630;2023-09-30T03:01:42;19.37;;;6.20;;
19495;SDS011;9888;48.606;9.630;2023-09-30T03:04:09;11.77;;;6.20;;
19495;SDS011;9888;48.606;9.630;2023-09-30T03:06:39;10.20;;;5.20;;
19495;SDS011;9888;48.606;9.630;2023-09-30T03:09:08;11.67;;;5.77;;
19495;SDS011;9888;48.606;9.630;2023-09-30T03:11:35;11.40;;;5.47;;
19495;SDS011;9888;48.606;9.630;2023-09-30T03:14:04;12.90;;;5.53;;
19495;SDS011;9888;48.606;9.630;2023-09-30T03:16:34;12.60;;;5.17;;
19495;SDS011;9888;48.606;9.630;2023-09-30T03:19:04;12.90;;;5.40;;
19495;SDS011;9888;48.606;9.630;2023-09-30T03:21:40;10.87;;;4.60;;
19495;SDS011;9888;48.606;9.630;2023-09-30T03:27:00;11.53;;;5.40;;
19495;SDS011;9888;48.606;9.630;2023-09-30T03:29:29;12.70;;;5.50;;
19495;SDS011;9888;48.606;9.630;2023-09-30T03:31:57;10.67;;;4.50;;
19495;SDS011;9888;48.606;9.630;2023-09-30T03:34:28;10.30;;;5.00;;
19495;SDS011;9888;48.606;9.630;2023-09-30T03:36:56;11.07;;;5.67;;
19495;SDS011;9888;48.606;9.630;2023-09-30T03:39:25;14.47;;;6.20;;
19495;SDS011;9888;48.606;9.630;2023-09-30T03:41:55;10.90;;;5.80;;
19495;SDS011;9888;48.606;9.630;2023-09-30T03:44:23;12.90;;;5.97;;
19495;SDS011;9888;48.606;9.630;2023-09-30T03:46:51;12.33;;;6.93;;
19495;SDS011;9888;48.606;9.630;2023-09-30T03:49:20;14.20;;;6.60;;
19495;SDS011;9888;48.606;9.630;2023-09-30T03:51:48;12.73;;;6.90;;
19495;SDS011;9888;48.606;9.630;2023-09-30T03:54:20;12.43;;;6.50;;
19495;SDS011;9888;48.606;9.630;2023-09-30T03:56:48;15.37;;;7.07;;
19495;SDS011;9888;48.606;9.630;2023-09-30T03:59:16;13.87;;;6.47;;
19495;SDS011;9888;48.606;9.630;2023-09-30T04:01:45;15.97;;;7.13;;
19495;SDS011;9888;48.606;9.630;2023-09-30T04:04:13;19.20;;;7.57;;
19495;SDS011;9888;48.606;9.630;2023-09-30T04:06:40;12.40;;;6.70;;
19495;SDS011;9888;48.606;9.630;2023-09-30T04:09:09;12.43;;;7.00;;
19495;SDS011;9888;48.606;9.630;2023-09-30T04:11:36;19.07;;;7.53;;
19495;SDS011;9888;48.606;9.630;2023-09-30T04:14:08;15.37;;;7.80;;
19495;SDS011;9888;48.606;9.630;2023-09-30T04:16:36;15.30;;;7.63;;
19495;SDS011;9888;48.606;9.630;2023-09-30T04:19:04;15.30;;;6.50;;
19495;SDS011;9888;48.606;9.630;2023-09-30T04:21:34;18.83;;;7.10;;
19495;SDS011;9888;48.606;9.630;2023-09-30T04:24:04;14.23;;;7.27;;
19495;SDS011;9888;48.606;9.630;2023-09-30T04:26:33;14.20;;;7.97;;
19495;SDS011;9888;48.606;9.630;2023-09-30T04:29:02;17.33;;;7.67;;
19495;SDS011;9888;48.606;9.630;2023-09-30T04:31:30;15.70;;;7.53;;
19495;SDS011;9888;48.606;9.630;2023-09-30T04:33:58;14.17;;;7.83;;
19495;SDS011;9888;48.606;9.630;2023-09-30T04:36:28;13.80;;;7.90;;
19495;SDS011;9888;48.606;9.630;2023-09-30T04:39:08;15.60;;;8.20;;
19495;SDS011;9888;48.606;9.630;2023-09-30T04:41:39;14.50;;;7.80;;
19495;SDS011;9888;48.606;9.630;2023-09-30T04:44:11;16.47;;;7.50;;
19495;SDS011;9888;48.606;9.630;2023-09-30T04:46:39;13.80;;;7.50;;
19495;SDS011;9888;48.606;9.630;2023-09-30T04:49:15;17.57;;;7.80;;
19495;SDS011;9888;48.606;9.630;2023-09-30T04:51:45;15.37;;;8.10;;
19495;SDS011;9888;48.606;9.630;2023-09-30T04:54:15;15.80;;;7.73;;
19495;SDS011;9888;48.606;9.630;2023-09-30T04:56:43;14.40;;;8.00;;
19495;SDS011;9888;48.606;9.630;2023-09-30T04:59:12;22.10;;;8.60;;
19495;SDS011;9888;48.606;9.630;2023-09-30T05:01:48;15.27;;;8.60;;
19495;SDS011;9888;48.606;9.630;2023-09-30T05:04:17;15.37;;;8.30;;
19495;SDS011;9888;48.606;9.630;2023-09-30T05:06:45;15.23;;;8.47;;
19495;SDS011;9888;48.606;9.630;2023-09-30T05:09:13;14.67;;;8.50;;
19495;SDS011;9888;48.606;9.630;2023-09-30T05:11:40;15.80;;;8.40;;
19495;SDS011;9888;48.606;9.630;2023-09-30T05:14:10;17.80;;;9.23;;
19495;SDS011;9888;48.606;9.630;2023-09-30T05:16:39;17.57;;;9.57;;
19495;SDS011;9888;48.606;9.630;2023-09-30T05:19:11;25.10;;;9.63;;
19495;SDS011;9888;48.606;9.630;2023-09-30T05:21:43;17.13;;;9.67;;
19495;SDS011;9888;48.606;9.630;2023-09-30T05:26:58;19.07;;;9.70;;
19495;SDS011;9888;48.606;9.630;2023-09-30T05:29:32;17.13;;;9.73;;
19495;SDS011;9888;48.606;9.630;2023-09-30T05:32:03;15.93;;;9.17;;
19495;SDS011;9888;48.606;9.630;2023-09-30T05:34:32;15.77;;;9.20;;
19495;SDS011;9888;48.606;9.630;2023-09-30T05:37:02;14.20;;;8.33;;
19495;SDS011;9888;48.606;9.630;2023-09-30T05:39:30;14.67;;;8.57;;
19495;SDS011;9888;48.606;9.630;2023-09-30T05:42:01;15.20;;;9.00;;
19495;SDS011;9888;48.606;9.630;2023-09-30T05:44:29;18.17;;;8.87;;
19495;SDS011;9888;48.606;9.630;2023-09-30T05:47:01;17.07;;;8.73;;
19495;SDS011;9888;48.606;9.630;2023-09-30T05:49:45;13.30;;;7.97;;
19495;SDS011;9888;48.606;9.630;2023-09-30T05:52:15;14.50;;;8.40;;
19495;SDS011;9888;48.606;9.630;2023-09-30T05:54:49;15.90;;;8.40;;
19495;SDS011;9888;48.606;9.630;2023-09-30T05:57:19;17.43;;;7.90;;
19495;SDS011;9888;48.606;9.630;2023-09-30T05:59:49;20.77;;;8.00;;
19495;SDS011;9888;48.606;9.630;2023-09-30T06:02:18;15.97;;;8.20;;
19495;SDS011;9888;48.606;9.630;2023-09-30T06:04:51;25.07;;;8.80;;
19495;SDS011;9888;48.606;9.630;2023-09-30T06:07:20;19.30;;;8.97;;
19495;SDS011;9888;48.606;9.630;2023-09-30T06:09:51;20.57;;;9.07;;
19495;SDS011;9888;48.606;9.630;2023-09-30T06:12:36;18.97;;;9.47;;
19495;SDS011;9888;48.606;9.630;2023-09-30T06:15:08;17.77;;;9.40;;
19495;SDS011;9888;48.606;9.630;2023-09-30T06:17:43;15.67;;;9.70;;
19495;SDS011;9888;48.606;9.630;2023-09-30T06:20:18;14.17;;;7.23;;
19495;SDS011;9888;48.606;9.630;2023-09-30T06:22:52;12.43;;;7.60;;
19495;SDS011;9888;48.606;9.630;2023-09-30T06:25:22;13.10;;;7.70;;
19495;SDS011;9888;48.606;9.630;2023-09-30T06:27:53;13.50;;;7.10;;
19495;SDS011;9888;48.606;9.630;2023-09-30T06:30:23;12.93;;;7.10;;
19495;SDS011;9888;48.606;9.630;2023-09-30T06:32:59;13.67;;;7.97;;
19495;SDS011;9888;48.606;9.630;2023-09-30T06:35:32;15.27;;;7.43;;
19495;SDS011;9888;48.606;9.630;2023-09-30T06:38:04;13.10;;;7.00;;
19495;SDS011;9888;48.606;9.630;2023-09-30T06:40:35;15.20;;;7.20;;
19495;SDS011;9888;48.606;9.630;2023-09-30T06:43:09;11.57;;;6.20;;
19495;SDS011;9888;48.606;9.630;2023-09-30T06:45:54;11.70;;;6.47;;
19495;SDS011;9888;48.606;9.630;2023-09-30T06:48:23;16.93;;;7.83;;
19495;SDS011;9888;48.606;9.630;2023-09-30T06:50:52;13.33;;;7.80;;
19495;SDS011;9888;48.606;9.630;2023-09-30T06:53:21;14.33;;;7.47;;
19495;SDS011;9888;48.606;9.630;2023-09-30T06:55:57;12.87;;;7.20;;
19495;SDS011;9888;48.606;9.630;2023-09-30T06:58:37;17.17;;;8.53;;
19495;SDS011;9888;48.606;9.630;2023-09-30T07:01:07;17.23;;;7.77;;
19495;SDS011;9888;48.606;9.630;2023-09-30T07:04:23;16.30;;;7.57;;
19495;SDS011;9888;48.606;9.630;2023-09-30T07:07:33;14.93;;;7.73;;
19495;SDS011;9888;48.606;9.630;2023-09-30T07:10:07;16.00;;;8.37;;
19495;SDS011;9888;48.606;9.630;2023-09-30T07:12:38;14.17;;;7.90;;
19495;SDS011;9888;48.606;9.630;2023-09-30T07:15:10;14.80;;;8.00;;
19495;SDS011;9888;48.606;9.630;2023-09-30T07:17:44;11.70;;;6.83;;
19495;SDS011;9888;48.606;9.630;2023-09-30T07:20:15;12.33;;;6.90;;
19495;SDS011;9888;48.606;9.630;2023-09-30T07:22:47;12.73;;;7.50;;
19495;SDS011;9888;48.606;9.630;2023-09-30T07:25:18;12.83;;;7.40;;
19495;SDS011;9888;48.606;9.630;2023-09-30T07:27:47;13.97;;;7.10;;
19495;SDS011;9888;48.606;9.630;2023-09-30T07:30:16;15.33;;;7.67;;
19495;SDS011;9888;48.606;9.630;2023-09-30T07:32:46;14.80;;;7.87;;
19495;SDS011;9888;48.606;9.630;2023-09-30T07:35:15;16.07;;;7.87;;
19495;SDS011;9888;48.606;9.630;2023-09-30T07:38:07;18.90;;;8.30;;
19495;SDS011;9888;48.606;9.630;2023-09-30T07:40:36;13.40;;;8.17;;
19495;SDS011;9888;48.606;9.630;2023-09-30T07:43:08;16.43;;;7.00;;
19495;SDS011;9888;48.606;9.630;2023-09-30T07:45:42;12.83;;;6.90;;
19495;SDS011;9888;48.606;9.630;2023-09-30T07:48:11;13.57;;;7.90;;
19495;SDS011;9888;48.606;9.630;2023-09-30T07:50:50;12.40;;;6.57;;
19495;SDS011;9888;48.606;9.630;2023-09-30T07:53:20;11.90;;;6.43;;
19495;SDS011;9888;48.606;9.630;2023-09-30T07:55:52;12.47;;;6.47;;
19495;SDS011;9888;48.606;9.630;2023-09-30T07:58:24;12.93;;;7.07;;
19495;SDS011;9888;48.606;9.630;2023-09-30T08:04:07;10.83;;;6.10;;
19495;SDS011;9888;48.606;9.630;2023-09-30T08:06:39;12.27;;;6.20;;
19495;SDS011;9888;48.606;9.630;2023-09-30T08:09:14;11.33;;;6.17;;
19495;SDS011;9888;48.606;9.630;2023-09-30T08:12:09;14.47;;;6.53;;
19495;SDS011;9888;48.606;9.630;2023-09-30T08:14:48;13.30;;;6.00;;
19495;SDS011;9888;48.606;9.630;2023-09-30T08:17:17;11.83;;;6.27;;
19495;SDS011;9888;48.606;9.630;2023-09-30T08:19:53;12.90;;;7.13;;
19495;SDS011;9888;48.606;9.630;2023-09-30T08:22:31;12.87;;;7.17;;
19495;SDS011;9888;48.606;9.630;2023-09-30T08:25:04;18.90;;;7.73;;
19495;SDS011;9888;48.606;9.630;2023-09-30T08:27:36;12.43;;;6.53;;
19495;SDS011;9888;48.606;9.630;2023-09-30T08:31:04;12.83;;;6.50;;
19495;SDS011;9888;48.606;9.630;2023-09-30T08:33:40;13.43;;;6.77;;
19495;SDS011;9888;48.606;9.630;2023-09-30T08:36:11;11.57;;;7.00;;
19495;SDS011;9888;48.606;9.630;2023-09-30T08:38:42;12.20;;;6.73;;
19495;SDS011;9888;48.606;9.630;2023-09-30T08:41:26;11.40;;;6.70;;
19495;SDS011;9888;48.606;9.630;2023-09-30T08:43:59;12.47;;;7.33;;
19495;SDS011;9888;48.606;9.630;2023-09-30T08:46:35;15.27;;;7.07;;
19495;SDS011;9888;48.606;9.630;2023-09-30T08:49:05;11.17;;;6.93;;
19495;SDS011;9888;48.606;9.630;2023-09-30T08:51:53;12.70;;;6.40;;
19495;SDS011;9888;48.606;9.630;2023-09-30T08:54:28;14.43;;;7.60;;
19495;SDS011;9888;48.606;9.630;2023-09-30T08:57:03;16.60;;;6.93;;
19495;SDS011;9888;48.606;9.630;2023-09-30T08:59:48;12.53;;;6.37;;
19495;SDS011;9888;48.606;9.630;2023-09-30T09:02:44;11.80;;;6.50;;
19495;SDS011;9888;48.606;9.630;2023-09-30T09:05:31;14.83;;;6.60;;
19495;SDS011;9888;48.606;9.630;2023-09-30T09:08:27;10.90;;;5.63;;
19495;SDS011;9888;48.606;9.630;2023-09-30T09:11:14;11.37;;;6.20;;
19495;SDS011;9888;48.606;9.630;2023-09-30T09:13:52;13.37;;;7.10;;
19495;SDS011;9888;48.606;9.630;2023-09-30T09:16:27;11.47;;;6.40;;
19495;SDS011;9888;48.606;9.630;2023-09-30T09:18:56;12.60;;;6.87;;
19495;SDS011;9888;48.606;9.630;2023-09-30T09:21:26;10.40;;;5.73;;
19495;SDS011;9888;48.606;9.630;2023-09-30T09:23:57;11.90;;;5.83;;
19495;SDS011;9888;48.606;9.630;2023-09-30T09:26:30;15.40;;;5.80;;
19495;SDS011;9888;48.606;9.630;2023-09-30T09:29:07;10.37;;;5.23;;
19495;SDS011;9888;48.606;9.630;2023-09-30T09:31:53;11.17;;;5.63;;
19495;SDS011;9888;48.606;9.630;2023-09-30T09:34:44;12.60;;;6.00;;
19495;SDS011;9888;48.606;9.630;2023-09-30T09:37:30;12.17;;;6.50;;
19495;SDS011;9888;48.606;9.630;2023-09-30T09:40:23;9.97;;;5.27;;
19495;SDS011;9888;48.606;9.630;2023-09-30T09:43:02;21.80;;;7.10;;
19495;SDS011;9888;48.606;9.630;2023-09-30T09:45:36;10.67;;;6.07;;
19495;SDS011;9888;48.606;9.630;2023-09-30T09:48:06;12.37;;;6.10;;
19495;SDS011;9888;48.606;9.630;2023-09-30T09:50:41;10.53;;;5.90;;
19495;SDS011;9888;48.606;9.630;2023-09-30T09:56:56;8.57;;;5.03;;
19495;SDS011;9888;48.606;9.630;2023-09-30T10:00:04;10.70;;;6.20;;
19495;SDS011;9888;48.606;9.630;2023-09-30T10:02:49;10.80;;;5.20;;
19495;SDS011;9888;48.606;9.630;2023-09-30T10:05:21;10.23;;;5.63;;
19495;SDS011;9888;48.606;9.630;2023-09-30T10:10:39;18.97;;;5.40;;
19495;SDS011;9888;48.606;9.630;2023-09-30T10:19:16;10.80;;;5.90;;
19495;SDS011;9888;48.606;9.630;2023-09-30T10:25:00;11.00;;;5.17;;
19495;SDS011;9888;48.606;9.630;2023-09-30T10:27:52;10.87;;;5.63;;
19495;SDS011;9888;48.606;9.630;2023-09-30T10:30:24;12.77;;;5.10;;
19495;SDS011;9888;48.606;9.630;2023-09-30T10:36:00;11.10;;;5.17;;
19495;SDS011;9888;48.606;9.630;2023-09-30T10:38:38;10.63;;;6.00;;
19495;SDS011;9888;48.606;9.630;2023-09-30T10:41:09;11.33;;;5.30;;
19495;SDS011;9888;48.606;9.630;2023-09-30T10:50:48;10.70;;;5.50;;
19495;SDS011;9888;48.606;9.630;2023-09-30T10:53:20;10.13;;;5.10;;
19495;SDS011;9888;48.606;9.630;2023-09-30T10:55:59;14.27;;;6.07;;
19495;SDS011;9888;48.606;9.630;2023-09-30T11:01:22;15.63;;;6.83;;
19495;SDS011;9888;48.606;9.630;2023-09-30T11:04:20;12.57;;;6.53;;
19495;SDS011;9888;48.606;9.630;2023-09-30T11:06:54;13.37;;;6.30;;
19495;SDS011;9888;48.606;9.630;2023-09-30T11:09:28;14.90;;;7.00;;
19495;SDS011;9888;48.606;9.630;2023-09-30T11:12:01;11.53;;;5.97;;
19495;SDS011;9888;48.606;9.630;2023-09-30T11:14:37;12.60;;;6.37;;
19495;SDS011;9888;48.606;9.630;2023-09-30T11:17:15;12.10;;;6.30;;
19495;SDS011;9888;48.606;9.630;2023-09-30T11:20:10;13.07;;;5.87;;
19495;SDS011;9888;48.606;9.630;2023-09-30T11:22:41;10.83;;;6.30;;
19495;SDS011;9888;48.606;9.630;2023-09-30T11:25:17;17.10;;;6.30;;
19495;SDS011;9888;48.606;9.630;2023-09-30T11:37:40;10.83;;;6.50;;
19495;SDS011;9888;48.606;9.630;2023-09-30T11:40:13;13.43;;;6.67;;
19495;SDS011;9888;48.606;9.630;2023-09-30T11:46:05;11.30;;;6.47;;
19495;SDS011;9888;48.606;9.630;2023-09-30T11:49:07;11.10;;;6.70;;
19495;SDS011;9888;48.606;9.630;2023-09-30T11:51:43;12.10;;;6.63;;
19495;SDS011;9888;48.606;9.630;2023-09-30T11:54:16;14.60;;;7.27;;
19495;SDS011;9888;48.606;9.630;2023-09-30T11:56:53;20.53;;;7.30;;
19495;SDS011;9888;48.606;9.630;2023-09-30T11:59:31;13.00;;;6.50;;
19495;SDS011;9888;48.606;9.630;2023-09-30T12:01:59;13.40;;;7.43;;
19495;SDS011;9888;48.606;9.630;2023-09-30T12:04:29;14.03;;;8.10;;
19495;SDS011;9888;48.606;9.630;2023-09-30T12:07:02;12.70;;;8.00;;
19495;SDS011;9888;48.606;9.630;2023-09-30T12:09:36;12.57;;;7.90;;
19495;SDS011;9888;48.606;9.630;2023-09-30T12:12:06;12.57;;;8.37;;
19495;SDS011;9888;48.606;9.630;2023-09-30T12:14:43;13.67;;;8.23;;
19495;SDS011;9888;48.606;9.630;2023-09-30T12:21:31;14.60;;;8.07;;
19495;SDS011;9888;48.606;9.630;2023-09-30T12:24:19;13.53;;;8.00;;
19495;SDS011;9888;48.606;9.630;2023-09-30T12:27:30;16.80;;;8.73;;
19495;SDS011;9888;48.606;9.630;2023-09-30T12:30:07;15.40;;;7.97;;
19495;SDS011;9888;48.606;9.630;2023-09-30T12:32:53;14.37;;;8.17;;
19495;SDS011;9888;48.606;9.630;2023-09-30T12:35:24;20.07;;;8.00;;
19495;SDS011;9888;48.606;9.630;2023-09-30T12:38:04;14.20;;;7.60;;
19495;SDS011;9888;48.606;9.630;2023-09-30T12:40:58;13.00;;;7.13;;
19495;SDS011;9888;48.606;9.630;2023-09-30T12:43:33;12.30;;;7.03;;
19495;SDS011;9888;48.606;9.630;2023-09-30T12:46:09;17.43;;;7.60;;
19495;SDS011;9888;48.606;9.630;2023-09-30T12:48:41;21.00;;;7.40;;
19495;SDS011;9888;48.606;9.630;2023-09-30T12:51:32;15.40;;;7.43;;
19495;SDS011;9888;48.606;9.630;2023-09-30T12:54:05;14.30;;;8.00;;
19495;SDS011;9888;48.606;9.630;2023-09-30T12:56:35;15.27;;;7.93;;
19495;SDS011;9888;48.606;9.630;2023-09-30T12:59:07;17.10;;;7.47;;
19495;SDS011;9888;48.606;9.630;2023-09-30T13:01:39;14.80;;;8.30;;
19495;SDS011;9888;48.606;9.630;2023-09-30T13:04:18;14.83;;;7.97;;
19495;SDS011;9888;48.606;9.630;2023-09-30T13:06:51;14.27;;;8.53;;
19495;SDS011;9888;48.606;9.630;2023-09-30T13:09:26;23.27;;;8.70;;
19495;SDS011;9888;48.606;9.630;2023-09-30T13:11:59;13.00;;;6.67;;
19495;SDS011;9888;48.606;9.630;2023-09-30T13:14:34;13.13;;;7.30;;
19495;SDS011;9888;48.606;9.630;2023-09-30T13:20:02;15.00;;;8.60;;
19495;SDS011;9888;48.606;9.630;2023-09-30T13:22:54;14.60;;;7.80;;
19495;SDS011;9888;48.606;9.630;2023-09-30T13:28:32;12.97;;;7.47;;
19495;SDS011;9888;48.606;9.630;2023-09-30T13:31:24;18.40;;;9.00;;
19495;SDS011;9888;48.606;9.630;2023-09-30T13:34:33;15.83;;;7.23;;
19495;SDS011;9888;48.606;9.630;2023-09-30T13:37:31;24.37;;;8.83;;
19495;SDS011;9888;48.606;9.630;2023-09-30T13:40:11;14.77;;;7.77;;
19495;SDS011;9888;48.606;9.630;2023-09-30T13:42:40;12.80;;;7.27;;
19495;SDS011;9888;48.606;9.630;2023-09-30T13:45:08;16.27;;;7.80;;
19495;SDS011;9888;48.606;9.630;2023-09-30T13:47:41;13.07;;;7.27;;
19495;SDS011;9888;48.606;9.630;2023-09-30T13:50:11;13.57;;;7.73;;
19495;SDS011;9888;48.606;9.630;2023-09-30T13:52:42;14.50;;;8.13;;
19495;SDS011;9888;48.606;9.630;2023-09-30T13:55:12;12.47;;;7.47;;
19495;SDS011;9888;48.606;9.630;2023-09-30T13:57:45;18.87;;;8.40;;
19495;SDS011;9888;48.606;9.630;2023-09-30T14:00:15;13.67;;;7.67;;
19495;SDS011;9888;48.606;9.630;2023-09-30T14:02:43;12.67;;;7.50;;
19495;SDS011;9888;48.606;9.630;2023-09-30T14:05:11;13.10;;;7.73;;
19495;SDS011;9888;48.606;9.630;2023-09-30T14:07:39;16.10;;;8.17;;
19495;SDS011;9888;48.606;9.630;2023-09-30T14:10:09;12.73;;;7.33;;
19495;SDS011;9888;48.606;9.630;2023-09-30T14:12:38;12.07;;;7.13;;
19495;SDS011;9888;48.606;9.630;2023-09-30T14:15:08;14.20;;;8.10;;
19495;SDS011;9888;48.606;9.630;2023-09-30T14:17:39;12.40;;;7.30;;
19495;SDS011;9888;48.606;9.630;2023-09-30T14:20:07;11.97;;;7.90;;
19495;SDS011;9888;48.606;9.630;2023-09-30T14:22:38;13.03;;;7.30;;
19495;SDS011;9888;48.606;9.630;2023-09-30T14:25:08;12.63;;;6.60;;
19495;SDS011;9888;48.606;9.630;2023-09-30T14:27:36;18.57;;;7.10;;
19495;SDS011;9888;48.606;9.630;2023-09-30T14:30:03;24.37;;;7.30;;
19495;SDS011;9888;48.606;9.630;2023-09-30T14:32:31;14.67;;;6.77;;
19495;SDS011;9888;48.606;9.630;2023-09-30T14:34:59;14.23;;;6.83;;
19495;SDS011;9888;48.606;9.630;2023-09-30T14:37:29;14.20;;;7.47;;
19495;SDS011;9888;48.606;9.630;2023-09-30T14:39:56;23.73;;;8.33;;
19495;SDS011;9888;48.606;9.630;2023-09-30T14:42:27;13.83;;;7.03;;
19495;SDS011;9888;48.606;9.630;2023-09-30T14:45:03;12.70;;;7.20;;
19495;SDS011;9888;48.606;9.630;2023-09-30T14:47:34;15.90;;;7.03;;
19495;SDS011;9888;48.606;9.630;2023-09-30T14:50:11;22.63;;;7.50;;
19495;SDS011;9888;48.606;9.630;2023-09-30T14:52:39;12.63;;;6.60;;
19495;SDS011;9888;48.606;9.630;2023-09-30T14:55:07;20.90;;;6.80;;
19495;SDS011;9888;48.606;9.630;2023-09-30T14:57:35;13.17;;;5.90;;
19495;SDS011;9888;48.606;9.630;2023-09-30T15:00:14;13.30;;;5.77;;
19495;SDS011;9888;48.606;9.630;2023-09-30T15:02:43;13.00;;;6.23;;
19495;SDS011;9888;48.606;9.630;2023-09-30T15:05:12;12.57;;;6.97;;
19495;SDS011;9888;48.606;9.630;2023-09-30T15:07:39;18.20;;;6.90;;
19495;SDS011;9888;48.606;9.630;2023-09-30T15:10:08;17.30;;;7.63;;
19495;SDS011;9888;48.606;9.630;2023-09-30T15:12:36;17.57;;;7.20;;
19495;SDS011;9888;48.606;9.630;2023-09-30T15:15:05;14.63;;;6.60;;
19495;SDS011;9888;48.606;9.630;2023-09-30T15:17:34;11.83;;;6.17;;
19495;SDS011;9888;48.606;9.630;2023-09-30T15:20:01;18.90;;;7.57;;
19495;SDS011;9888;48.606;9.630;2023-09-30T15:22:31;14.80;;;6.97;;
19495;SDS011;9888;48.606;9.630;2023-09-30T15:24:59;16.73;;;6.20;;
19495;SDS011;9888;48.606;9.630;2023-09-30T15:27:27;13.73;;;6.20;;
19495;SDS011;9888;48.606;9.630;2023-09-30T15:29:59;13.80;;;6.40;;
19495;SDS011;9888;48.606;9.630;2023-09-30T15:32:29;24.60;;;7.77;;
19495;SDS011;9888;48.606;9.630;2023-09-30T15:35:01;13.87;;;6.43;;
19495;SDS011;9888;48.606;9.630;2023-09-30T15:37:31;28.83;;;8.07;;
19495;SDS011;9888;48.606;9.630;2023-09-30T15:40:02;16.10;;;6.43;;
19495;SDS011;9888;48.606;9.630;2023-09-30T15:42:32;12.80;;;6.20;;
19495;SDS011;9888;48.606;9.630;2023-09-30T15:45:04;12.57;;;5.83;;
19495;SDS011;9888;48.606;9.630;2023-09-30T15:47:35;12.13;;;5.97;;
19495;SDS011;9888;48.606;9.630;2023-09-30T15:50:05;14.73;;;6.40;;
19495;SDS011;9888;48.606;9.630;2023-09-30T15:52:37;12.20;;;6.20;;
19495;SDS011;9888;48.606;9.630;2023-09-30T15:55:05;22.00;;;6.70;;
19495;SDS011;9888;48.606;9.630;2023-09-30T15:57:34;17.23;;;7.00;;
19495;SDS011;9888;48.606;9.630;2023-09-30T16:00:01;13.97;;;6.47;;
19495;SDS011;9888;48.606;9.630;2023-09-30T16:02:30;15.33;;;6.20;;
19495;SDS011;9888;48.606;9.630;2023-09-30T16:04:58;10.67;;;5.47;;
19495;SDS011;9888;48.606;9.630;2023-09-30T16:07:25;15.43;;;6.50;;
19495;SDS011;9888;48.606;9.630;2023-09-30T16:09:54;13.53;;;5.77;;
19495;SDS011;9888;48.606;9.630;2023-09-30T16:12:22;12.10;;;6.40;;
19495;SDS011;9888;48.606;9.630;2023-09-30T16:14:50;13.90;;;6.47;;
19495;SDS011;9888;48.606;9.630;2023-09-30T16:17:18;16.10;;;7.13;;
19495;SDS011;9888;48.606;9.630;2023-09-30T16:19:45;10.93;;;6.13;;
19495;SDS011;9888;48.606;9.630;2023-09-30T16:22:14;12.00;;;6.33;;